Time,TemperatureF,DewpointF,PressureIn,WindDirection,WindDirectionDegrees,WindSpeedMPH,WindSpeedGustMPH,Humidity,HourlyPrecipIn,Conditions,Clouds,dailyrainin,SoftwareType,DateUTC
2013-07-03 00:01:00,69.1,65.4,30.23,WNW,300,1.0,8.0,88,0.00,,,0.00,WeatherCatV1.15B25,2013-07-03 04:01:00,
2013-07-03 00:06:00,69.0,65.6,30.23,WSW,250,6.0,6.0,89,0.00,,,0.00,WeatherCatV1.15B25,2013-07-03 04:06:00,
2013-07-03 00:11:00,69.0,65.6,30.23,WNW,296,3.0,5.0,89,0.00,,,0.00,WeatherCatV1.15B25,2013-07-03 04:11:00,
2013-07-03 00:16:00,68.9,65.5,30.23,West,265,3.0,4.0,89,0.00,,,0.00,WeatherCatV1.15B25,2013-07-03 04:16:00,
2013-07-03 00:21:00,68.9,65.5,30.22,WNW,287,3.0,5.0,89,0.00,,,0.00,WeatherCatV1.15B25,2013-07-03 04:21:00,
2013-07-03 00:26:00,68.8,65.4,30.22,WNW,299,2.0,4.0,89,0.00,,,0.00,WeatherCatV1.15B25,2013-07-03 04:26:00,
2013-07-03 00:31:00,68.7,65.3,30.22,West,278,1.0,7.0,89,0.00,,,0.00,WeatherCatV1.15B25,2013-07-03 04:31:00,
2013-07-03 00:36:00,68.6,65.2,30.22,NW,313,0.0,2.0,89,0.00,,,0.00,WeatherCatV1.15B25,2013-07-03 04:36:00,
2013-07-03 00:41:00,68.6,65.2,30.22,WNW,296,1.0,6.0,89,0.00,,,0.00,WeatherCatV1.15B25,2013-07-03 04:41:00,
2013-07-03 00:46:00,68.6,65.2,30.22,NNW,336,2.0,3.0,89,0.00,,,0.00,WeatherCatV1.15B25,2013-07-03 04:46:00,
2013-07-03 00:51:00,68.5,65.1,30.22,NW,315,0.0,3.0,89,0.00,,,0.00,WeatherCatV1.15B25,2013-07-03 04:51:00,
2013-07-03 00:56:00,68.5,65.1,30.22,WNW,289,1.0,1.0,89,0.00,,,0.00,WeatherCatV1.15B25,2013-07-03 04:56:00,
2013-07-03 01:01:00,68.5,65.1,30.22,NW,311,0.0,4.0,89,0.00,,,0.00,WeatherCatV1.15B25,2013-07-03 05:01:00,
2013-07-03 01:06:00,68.5,65.1,30.22,West,266,2.0,3.0,89,0.00,,,0.00,WeatherCatV1.15B25,2013-07-03 05:06:00,
2013-07-03 01:11:00,68.5,65.1,30.22,WNW,294,1.0,4.0,89,0.00,,,0.00,WeatherCatV1.15B25,2013-07-03 05:11:00,
2013-07-03 01:16:00,68.5,65.1,30.22,North,5,1.0,8.0,89,0.00,,,0.00,WeatherCatV1.15B25,2013-07-03 05:16:00,
2013-07-03 01:21:00,68.5,65.1,30.22,West,269,4.0,6.0,89,0.00,,,0.00,WeatherCatV1.15B25,2013-07-03 05:21:00,
2013-07-03 01:26:00,68.4,65.0,30.22,West,261,2.0,6.0,89,0.00,,,0.00,WeatherCatV1.15B25,2013-07-03 05:26:00,
2013-07-03 01:31:00,68.4,65.0,30.22,WNW,297,0.0,3.0,89,0.00,,,0.00,WeatherCatV1.15B25,2013-07-03 05:31:00,
2013-07-03 01:36:00,68.3,64.9,30.22,WNW,284,2.0,4.0,89,0.00,,,0.00,WeatherCatV1.15B25,2013-07-03 05:36:00,
2013-07-03 01:41:00,68.3,64.9,30.22,NW,306,2.0,5.0,89,0.00,,,0.00,WeatherCatV1.15B25,2013-07-03 05:41:00,
2013-07-03 01:51:00,68.3,64.9,30.21,WNW,303,0.0,4.0,89,0.00,,,0.00,WeatherCatV1.15B25,2013-07-03 05:51:00,
2013-07-03 02:01:00,68.2,64.8,30.21,WNW,290,0.0,3.0,89,0.00,,,0.00,WeatherCatV1.15B25,2013-07-03 06:01:00,
2013-07-03 02:11:00,68.1,64.7,30.21,WNW,290,2.0,2.0,89,0.00,,,0.00,WeatherCatV1.15B25,2013-07-03 06:11:00,
2013-07-03 02:21:00,68.2,64.8,30.21,WNW,286,1.0,1.0,89,0.00,,,0.00,WeatherCatV1.15B25,2013-07-03 06:21:00,
2013-07-03 02:26:00,68.2,64.8,30.21,West,273,1.0,3.0,89,0.00,,,0.00,WeatherCatV1.15B25,2013-07-03 06:26:00,
2013-07-03 02:31:00,68.3,64.9,30.21,WNW,290,1.0,3.0,89,0.00,,,0.00,WeatherCatV1.15B25,2013-07-03 06:31:00,
2013-07-03 02:36:00,68.3,64.9,30.21,NW,320,1.0,4.0,89,0.00,,,0.00,WeatherCatV1.15B25,2013-07-03 06:36:00,
2013-07-03 02:46:00,68.2,64.8,30.21,WNW,292,1.0,2.0,89,0.00,,,0.00,WeatherCatV1.15B25,2013-07-03 06:46:00,
2013-07-03 02:51:00,68.2,64.8,30.21,WNW,302,1.0,2.0,89,0.00,,,0.00,WeatherCatV1.15B25,2013-07-03 06:51:00,
2013-07-03 02:56:00,68.2,64.8,30.21,WNW,298,0.0,2.0,89,0.00,,,0.00,WeatherCatV1.15B25,2013-07-03 06:56:00,
2013-07-03 03:01:00,68.1,64.7,30.21,WSW,251,1.0,3.0,89,0.00,,,0.00,WeatherCatV1.15B25,2013-07-03 07:01:00,
2013-07-03 03:06:00,68.1,64.7,30.21,WSW,242,1.0,3.0,89,0.00,,,0.00,WeatherCatV1.15B25,2013-07-03 07:06:00,
2013-07-03 03:11:00,68.1,65.0,30.21,WSW,244,0.0,0.0,90,0.00,,,0.00,WeatherCatV1.15B25,2013-07-03 07:11:00,
2013-07-03 03:16:00,68.1,65.4,30.21,NW,326,0.0,1.0,91,0.00,,,0.01,WeatherCatV1.15B25,2013-07-03 07:16:00,
2013-07-03 03:21:00,68.0,65.6,30.21,NW,326,1.0,1.0,92,0.00,,,0.01,WeatherCatV1.15B25,2013-07-03 07:21:00,
2013-07-03 03:26:00,67.8,65.4,30.20,NW,325,1.0,2.0,92,0.00,,,0.01,WeatherCatV1.15B25,2013-07-03 07:26:00,
2013-07-03 03:31:00,67.5,65.4,30.21,NW,325,0.0,0.0,93,0.00,,,0.01,WeatherCatV1.15B25,2013-07-03 07:31:00,
2013-07-03 03:36:00,67.4,65.3,30.20,NW,325,1.0,1.0,93,0.00,,,0.01,WeatherCatV1.15B25,2013-07-03 07:36:00,
2013-07-03 03:41:00,67.2,65.1,30.20,NW,321,1.0,2.0,93,0.00,,,0.01,WeatherCatV1.15B25,2013-07-03 07:41:00,
2013-07-03 03:46:00,67.0,65.2,30.20,NNW,333,0.0,2.0,94,0.00,,,0.01,WeatherCatV1.15B25,2013-07-03 07:46:00,
2013-07-03 03:51:00,66.9,65.1,30.20,North,355,0.0,1.0,94,0.00,,,0.01,WeatherCatV1.15B25,2013-07-03 07:51:00,
2013-07-03 03:56:00,66.8,65.0,30.21,North,355,0.0,0.0,94,0.00,,,0.01,WeatherCatV1.15B25,2013-07-03 07:56:00,
2013-07-03 04:01:00,66.8,65.3,30.21,North,355,0.0,0.0,95,0.00,,,0.01,WeatherCatV1.15B25,2013-07-03 08:01:00,
2013-07-03 04:06:00,66.7,65.2,30.21,NNW,333,0.0,0.0,95,0.00,,,0.01,WeatherCatV1.15B25,2013-07-03 08:06:00,
2013-07-03 04:11:00,66.7,65.2,30.21,NNW,333,0.0,1.0,95,0.00,,,0.01,WeatherCatV1.15B25,2013-07-03 08:11:00,
2013-07-03 04:16:00,66.7,65.2,30.21,NNW,333,0.0,2.0,95,0.00,,,0.01,WeatherCatV1.15B25,2013-07-03 08:16:00,
2013-07-03 04:31:00,66.6,65.1,30.21,NW,311,0.0,0.0,95,0.00,,,0.01,WeatherCatV1.15B25,2013-07-03 08:31:00,
2013-07-03 04:36:00,66.6,65.1,30.21,NW,311,0.0,0.0,95,0.00,,,0.01,WeatherCatV1.15B25,2013-07-03 08:36:00,
2013-07-03 04:46:00,66.6,65.1,30.21,NW,311,0.0,0.0,95,0.00,,,0.01,WeatherCatV1.15B25,2013-07-03 08:46:00,
2013-07-03 04:51:00,66.7,65.5,30.22,NW,311,0.0,0.0,96,0.00,,,0.01,WeatherCatV1.15B25,2013-07-03 08:51:00,
2013-07-03 04:56:00,66.7,65.5,30.22,NW,311,0.0,0.0,96,0.00,,,0.01,WeatherCatV1.15B25,2013-07-03 08:56:00,
2013-07-03 05:11:00,66.7,65.5,30.22,NW,311,0.0,0.0,96,0.00,,,0.01,WeatherCatV1.15B25,2013-07-03 09:11:00,
2013-07-03 05:16:00,66.7,65.5,30.22,NW,311,0.0,0.0,96,0.00,,,0.01,WeatherCatV1.15B25,2013-07-03 09:16:00,
2013-07-03 05:31:00,66.7,65.5,30.22,NW,311,0.0,0.0,96,0.00,,,0.01,WeatherCatV1.15B25,2013-07-03 09:31:00,
2013-07-03 05:36:00,66.7,65.5,30.22,NW,311,0.0,0.0,96,0.00,,,0.02,WeatherCatV1.15B25,2013-07-03 09:36:00,
2013-07-03 05:41:00,66.7,65.5,30.23,NW,311,0.0,0.0,96,0.07,,,0.03,WeatherCatV1.15B25,2013-07-03 09:41:00,
2013-07-03 05:46:00,66.7,65.5,30.22,NW,311,0.0,0.0,96,0.13,,,0.04,WeatherCatV1.15B25,2013-07-03 09:46:00,
2013-07-03 05:51:00,66.7,65.5,30.22,NW,312,0.0,0.0,96,0.14,,,0.05,WeatherCatV1.15B25,2013-07-03 09:51:00,
2013-07-03 05:56:00,66.7,65.5,30.23,NW,312,0.0,0.0,96,0.06,,,0.05,WeatherCatV1.15B25,2013-07-03 09:56:00,
2013-07-03 06:01:00,66.7,65.5,30.23,NW,312,0.0,0.0,96,0.04,,,0.05,WeatherCatV1.15B25,2013-07-03 10:01:00,
2013-07-03 06:11:00,66.5,65.3,30.23,NNW,347,0.0,0.0,96,0.29,,,0.10,WeatherCatV1.15B25,2013-07-03 10:11:00,
2013-07-03 06:16:00,66.5,65.3,30.23,NNW,342,0.0,1.0,96,0.09,,,0.10,WeatherCatV1.15B25,2013-07-03 10:16:00,
2013-07-03 06:21:00,66.4,65.5,30.24,NNW,342,0.0,0.0,97,0.07,,,0.11,WeatherCatV1.15B25,2013-07-03 10:21:00,
2013-07-03 06:26:00,66.4,65.5,30.24,NNW,331,0.0,3.0,97,0.07,,,0.11,WeatherCatV1.15B25,2013-07-03 10:26:00,
2013-07-03 06:31:00,66.4,65.5,30.23,NNW,338,0.0,2.0,97,0.05,,,0.11,WeatherCatV1.15B25,2013-07-03 10:31:00,
2013-07-03 06:36:00,66.4,65.5,30.23,NW,304,0.0,1.0,97,0.04,,,0.12,WeatherCatV1.15B25,2013-07-03 10:36:00,
2013-07-03 06:46:00,66.3,65.4,30.23,NW,304,0.0,0.0,97,0.04,,,0.12,WeatherCatV1.15B25,2013-07-03 10:46:00,
2013-07-03 06:51:00,66.2,65.3,30.23,NW,304,0.0,0.0,97,0.00,,,0.12,WeatherCatV1.15B25,2013-07-03 10:51:00,
2013-07-03 06:56:00,66.2,65.3,30.24,NW,304,0.0,0.0,97,0.00,,,0.12,WeatherCatV1.15B25,2013-07-03 10:56:00,
2013-07-03 07:01:00,66.2,65.3,30.24,NW,304,0.0,0.0,97,0.00,,,0.12,WeatherCatV1.15B25,2013-07-03 11:01:00,
2013-07-03 07:06:00,66.2,65.3,30.24,NW,304,0.0,0.0,97,0.00,,,0.13,WeatherCatV1.15B25,2013-07-03 11:06:00,
2013-07-03 07:11:00,66.1,65.2,30.24,NW,304,0.0,0.0,97,0.30,,,0.16,WeatherCatV1.15B25,2013-07-03 11:11:00,
2013-07-03 07:16:00,66.1,65.2,30.24,NNE,24,0.0,2.0,97,0.09,,,0.16,WeatherCatV1.15B25,2013-07-03 11:16:00,
2013-07-03 07:21:00,66.1,65.2,30.24,NNE,24,0.0,0.0,97,0.07,,,0.17,WeatherCatV1.15B25,2013-07-03 11:21:00,
2013-07-03 07:26:00,66.1,65.2,30.24,NNE,22,1.0,1.0,97,0.45,,,0.22,WeatherCatV1.15B25,2013-07-03 11:26:00,
2013-07-03 07:36:00,66.0,65.1,30.24,NE,40,1.0,1.0,97,0.41,,,0.28,WeatherCatV1.15B25,2013-07-03 11:36:00,
2013-07-03 07:41:00,66.0,65.1,30.24,East,88,0.0,1.0,97,0.38,,,0.30,WeatherCatV1.15B25,2013-07-03 11:41:00,
2013-07-03 07:46:00,66.1,65.5,30.25,East,88,0.0,0.0,98,0.39,,,0.34,WeatherCatV1.15B25,2013-07-03 11:46:00,
2013-07-03 07:51:00,66.1,65.5,30.25,NE,45,0.0,1.0,98,0.24,,,0.36,WeatherCatV1.15B25,2013-07-03 11:51:00,
2013-07-03 08:01:00,66.2,65.6,30.25,NNE,14,3.0,3.0,98,0.13,,,0.38,WeatherCatV1.15B25,2013-07-03 12:01:00,
2013-07-03 08:11:00,66.4,65.8,30.25,WSW,253,2.0,3.0,98,0.04,,,0.38,WeatherCatV1.15B25,2013-07-03 12:11:00,
2013-07-03 08:21:00,66.7,66.1,30.25,West,280,0.0,2.0,98,0.00,,,0.38,WeatherCatV1.15B25,2013-07-03 12:21:00,
2013-07-03 08:26:00,66.8,66.2,30.25,West,280,0.0,1.0,98,0.00,,,0.38,WeatherCatV1.15B25,2013-07-03 12:26:00,
2013-07-03 08:31:00,66.9,66.3,30.26,West,280,0.0,0.0,98,0.00,,,0.38,WeatherCatV1.15B25,2013-07-03 12:31:00,
2013-07-03 08:36:00,66.9,66.3,30.26,West,280,0.0,2.0,98,0.00,,,0.38,WeatherCatV1.15B25,2013-07-03 12:36:00,
2013-07-03 08:41:00,66.9,66.3,30.26,West,280,0.0,0.0,98,0.33,,,0.40,WeatherCatV1.15B25,2013-07-03 12:41:00,
2013-07-03 08:51:00,67.0,66.4,30.27,WSW,255,0.0,0.0,98,0.11,,,0.46,WeatherCatV1.15B25,2013-07-03 12:51:00,
2013-07-03 08:56:00,67.1,66.5,30.27,WSW,255,0.0,0.0,98,0.06,,,0.46,WeatherCatV1.15B25,2013-07-03 12:56:00,
2013-07-03 09:01:00,67.3,66.7,30.27,WNW,289,0.0,2.0,98,0.04,,,0.46,WeatherCatV1.15B25,2013-07-03 13:01:00,
2013-07-03 09:06:00,67.7,67.1,30.27,WNW,298,1.0,2.0,98,0.00,,,0.46,WeatherCatV1.15B25,2013-07-03 13:06:00,
2013-07-03 09:11:00,68.1,67.8,30.27,West,265,4.0,5.0,99,0.00,,,0.46,WeatherCatV1.15B25,2013-07-03 13:11:00,
2013-07-03 09:16:00,68.1,67.5,30.27,West,275,0.0,2.0,98,0.00,,,0.46,WeatherCatV1.15B25,2013-07-03 13:16:00,
2013-07-03 09:21:00,68.1,67.2,30.27,West,265,0.0,6.0,97,0.00,,,0.46,WeatherCatV1.15B25,2013-07-03 13:21:00,
2013-07-03 09:31:00,68.1,67.2,30.27,West,265,1.0,3.0,97,0.00,,,0.46,WeatherCatV1.15B25,2013-07-03 13:31:00,
2013-07-03 09:41:00,68.1,67.2,30.27,WNW,293,2.0,3.0,97,0.00,,,0.46,WeatherCatV1.15B25,2013-07-03 13:41:00,
2013-07-03 09:46:00,68.3,67.4,30.27,West,265,1.0,2.0,97,0.00,,,0.46,WeatherCatV1.15B25,2013-07-03 13:46:00,
2013-07-03 09:51:00,68.5,67.6,30.27,East,99,0.0,1.0,97,0.00,,,0.46,WeatherCatV1.15B25,2013-07-03 13:51:00,
2013-07-03 09:56:00,68.5,67.6,30.27,NNW,331,0.0,1.0,97,0.00,,,0.46,WeatherCatV1.15B25,2013-07-03 13:56:00,
2013-07-03 10:06:00,68.7,67.5,30.27,West,277,0.0,3.0,96,0.00,,,0.46,WeatherCatV1.15B25,2013-07-03 14:06:00,
2013-07-03 10:11:00,68.8,67.9,30.27,WNW,282,3.0,4.0,97,0.00,,,0.46,WeatherCatV1.15B25,2013-07-03 14:11:00,
2013-07-03 10:16:00,68.6,67.4,30.27,WSW,255,1.0,2.0,96,0.00,,,0.46,WeatherCatV1.15B25,2013-07-03 14:16:00,
2013-07-03 10:21:00,68.6,67.1,30.27,WSW,248,2.0,3.0,95,0.00,,,0.47,WeatherCatV1.15B25,2013-07-03 14:21:00,
2013-07-03 10:26:00,68.6,67.4,30.27,WSW,246,4.0,4.0,96,0.12,,,0.47,WeatherCatV1.15B25,2013-07-03 14:26:00,
2013-07-03 10:36:00,68.6,67.4,30.27,WSW,243,0.0,5.0,96,0.14,,,0.51,WeatherCatV1.15B25,2013-07-03 14:36:00,
2013-07-03 10:46:00,69.0,68.1,30.27,West,272,2.0,2.0,97,0.04,,,0.51,WeatherCatV1.15B25,2013-07-03 14:46:00,
2013-07-03 10:51:00,69.2,68.0,30.27,West,259,1.0,5.0,96,0.00,,,0.51,WeatherCatV1.15B25,2013-07-03 14:51:00,
2013-07-03 10:56:00,69.4,68.2,30.27,WSW,250,0.0,2.0,96,0.00,,,0.51,WeatherCatV1.15B25,2013-07-03 14:56:00,
2013-07-03 11:01:00,69.6,68.4,30.27,NNW,342,2.0,4.0,96,0.00,,,0.51,WeatherCatV1.15B25,2013-07-03 15:01:00,
2013-07-03 11:06:00,69.7,67.9,30.27,SW,236,0.0,5.0,94,0.00,,,0.51,WeatherCatV1.15B25,2013-07-03 15:06:00,
2013-07-03 11:11:00,69.7,68.2,30.27,West,265,0.0,3.0,95,0.00,,,0.51,WeatherCatV1.15B25,2013-07-03 15:11:00,
2013-07-03 11:16:00,69.7,68.2,30.28,West,268,1.0,3.0,95,0.00,,,0.51,WeatherCatV1.15B25,2013-07-03 15:16:00,
2013-07-03 11:21:00,69.8,68.3,30.28,West,269,0.0,5.0,95,0.00,,,0.51,WeatherCatV1.15B25,2013-07-03 15:21:00,
2013-07-03 11:26:00,70.0,68.8,30.28,WSW,247,2.0,2.0,96,0.00,,,0.51,WeatherCatV1.15B25,2013-07-03 15:26:00,
2013-07-03 11:31:00,70.3,68.8,30.28,SW,225,0.0,5.0,95,0.00,,,0.51,WeatherCatV1.15B25,2013-07-03 15:31:00,
2013-07-03 11:36:00,70.5,69.0,30.28,WSW,247,1.0,6.0,95,0.00,,,0.51,WeatherCatV1.15B25,2013-07-03 15:36:00,
2013-07-03 11:41:00,70.6,69.1,30.28,West,265,2.0,4.0,95,0.00,,,0.51,WeatherCatV1.15B25,2013-07-03 15:41:00,
2013-07-03 11:46:00,70.4,68.3,30.28,West,280,2.0,3.0,93,0.00,,,0.52,WeatherCatV1.15B25,2013-07-03 15:46:00,
2013-07-03 11:56:00,70.0,67.9,30.28,SW,234,0.0,6.0,93,0.05,,,0.53,WeatherCatV1.15B25,2013-07-03 15:56:00,
2013-07-03 12:01:00,70.0,68.2,30.28,WSW,248,1.0,4.0,94,0.05,,,0.53,WeatherCatV1.15B25,2013-07-03 16:01:00,
2013-07-03 12:06:00,70.1,68.6,30.28,WSW,250,0.0,4.0,95,0.05,,,0.53,WeatherCatV1.15B25,2013-07-03 16:06:00,
2013-07-03 12:11:00,70.5,69.0,30.28,SSW,199,0.0,5.0,95,0.00,,,0.53,WeatherCatV1.15B25,2013-07-03 16:11:00,
2013-07-03 12:21:00,71.0,69.2,30.28,WSW,250,8.0,8.0,94,0.00,,,0.53,WeatherCatV1.15B25,2013-07-03 16:21:00,
2013-07-03 12:26:00,71.0,68.9,30.28,West,261,0.0,6.0,93,0.00,,,0.53,WeatherCatV1.15B25,2013-07-03 16:26:00,
2013-07-03 12:31:00,71.1,69.3,30.28,WSW,244,2.0,4.0,94,0.00,,,0.53,WeatherCatV1.15B25,2013-07-03 16:31:00,
2013-07-03 12:36:00,71.2,69.1,30.27,NNW,333,0.0,1.0,93,0.00,,,0.53,WeatherCatV1.15B25,2013-07-03 16:36:00,
2013-07-03 12:41:00,71.4,68.9,30.27,WSW,248,3.0,7.0,92,0.00,,,0.53,WeatherCatV1.15B25,2013-07-03 16:41:00,
2013-07-03 12:51:00,71.6,68.2,30.27,NNW,333,1.0,3.0,89,0.00,,,0.53,WeatherCatV1.15B25,2013-07-03 16:51:00,
2013-07-03 12:56:00,71.3,67.9,30.27,SW,215,0.0,9.0,89,0.00,,,0.53,WeatherCatV1.15B25,2013-07-03 16:56:00,
2013-07-03 13:01:00,71.2,68.8,30.27,SW,229,1.0,5.0,92,0.00,,,0.54,WeatherCatV1.15B25,2013-07-03 17:01:00,
2013-07-03 13:11:00,71.0,68.6,30.27,West,265,2.0,9.0,92,0.00,,,0.54,WeatherCatV1.15B25,2013-07-03 17:11:00,
2013-07-03 13:16:00,70.9,69.1,30.27,West,267,0.0,0.0,94,0.04,,,0.55,WeatherCatV1.15B25,2013-07-03 17:16:00,
2013-07-03 13:21:00,70.9,69.4,30.27,WNW,287,0.0,1.0,95,0.15,,,0.56,WeatherCatV1.15B25,2013-07-03 17:21:00,
2013-07-03 13:26:00,70.9,69.4,30.27,NW,311,1.0,3.0,95,0.07,,,0.56,WeatherCatV1.15B25,2013-07-03 17:26:00,
2013-07-03 13:31:00,70.9,68.5,30.26,West,261,2.0,4.0,92,0.04,,,0.56,WeatherCatV1.15B25,2013-07-03 17:31:00,
2013-07-03 13:36:00,71.0,69.2,30.26,SW,233,2.0,6.0,94,0.04,,,0.57,WeatherCatV1.15B25,2013-07-03 17:36:00,
2013-07-03 13:41:00,71.2,69.4,30.26,WNW,286,0.0,3.0,94,0.04,,,0.57,WeatherCatV1.15B25,2013-07-03 17:41:00,
2013-07-03 13:46:00,71.7,69.6,30.26,West,264,2.0,7.0,93,0.04,,,0.57,WeatherCatV1.15B25,2013-07-03 17:46:00,
2013-07-03 13:51:00,71.8,69.3,30.26,NW,325,2.0,8.0,92,0.00,,,0.57,WeatherCatV1.15B25,2013-07-03 17:51:00,
2013-07-03 13:56:00,71.7,69.6,30.26,WNW,299,0.0,5.0,93,0.00,,,0.57,WeatherCatV1.15B25,2013-07-03 17:56:00,
2013-07-03 14:01:00,71.9,70.1,30.26,NNE,17,2.0,2.0,94,0.00,,,0.57,WeatherCatV1.15B25,2013-07-03 18:01:00,
2013-07-03 14:06:00,71.9,69.8,30.26,WSW,248,4.0,6.0,93,0.00,,,0.57,WeatherCatV1.15B25,2013-07-03 18:06:00,
2013-07-03 14:16:00,71.9,68.8,30.26,SW,221,3.0,7.0,90,0.00,,,0.57,WeatherCatV1.15B25,2013-07-03 18:16:00,
2013-07-03 14:21:00,71.8,68.0,30.26,WSW,239,4.0,12.0,88,0.00,,,0.57,WeatherCatV1.15B25,2013-07-03 18:21:00,
2013-07-03 14:26:00,71.5,68.4,30.26,WSW,246,4.0,5.0,90,0.00,,,0.57,WeatherCatV1.15B25,2013-07-03 18:26:00,
2013-07-03 14:31:00,71.0,68.2,30.26,WNW,290,0.0,7.0,91,0.00,,,0.58,WeatherCatV1.15B25,2013-07-03 18:31:00,
2013-07-03 14:36:00,70.6,68.2,30.27,West,266,3.0,6.0,92,1.78,,,0.61,WeatherCatV1.15B25,2013-07-03 18:36:00,
2013-07-03 14:41:00,70.0,67.9,30.26,WSW,245,2.0,4.0,93,0.83,,,0.72,WeatherCatV1.15B25,2013-07-03 18:41:00,
2013-07-03 14:46:00,69.6,67.8,30.26,West,265,1.0,2.0,94,0.11,,,0.72,WeatherCatV1.15B25,2013-07-03 18:46:00,
2013-07-03 14:51:00,69.7,68.8,30.26,West,265,0.0,1.0,97,0.06,,,0.72,WeatherCatV1.15B25,2013-07-03 18:51:00,
2013-07-03 14:56:00,70.4,69.8,30.26,West,263,0.0,1.0,98,0.04,,,0.72,WeatherCatV1.15B25,2013-07-03 18:56:00,
2013-07-03 15:01:00,70.9,70.0,30.26,NE,44,0.0,0.0,97,0.00,,,0.72,WeatherCatV1.15B25,2013-07-03 19:01:00,
2013-07-03 15:06:00,71.5,70.9,30.25,NE,36,0.0,1.0,98,0.00,,,0.72,WeatherCatV1.15B25,2013-07-03 19:06:00,
2013-07-03 15:11:00,71.8,71.2,30.25,NE,36,0.0,1.0,98,0.00,,,0.72,WeatherCatV1.15B25,2013-07-03 19:11:00,
2013-07-03 15:26:00,69.1,66.0,30.26,WSW,250,3.0,10.0,90,0.00,,,0.72,WeatherCatV1.15B25,2013-07-03 19:26:00,
2013-07-03 15:31:00,68.1,65.4,30.25,NW,315,4.0,7.0,91,0.00,,,0.72,WeatherCatV1.15B25,2013-07-03 19:31:00,
2013-07-03 15:36:00,67.5,65.4,30.26,West,264,0.0,2.0,93,0.00,,,0.72,WeatherCatV1.15B25,2013-07-03 19:36:00,
2013-07-03 15:41:00,67.2,65.1,30.26,SW,225,1.0,1.0,93,0.00,,,0.72,WeatherCatV1.15B25,2013-07-03 19:41:00,
2013-07-03 15:46:00,67.1,65.3,30.26,NW,321,0.0,2.0,94,0.00,,,0.73,WeatherCatV1.15B25,2013-07-03 19:46:00,
2013-07-03 15:51:00,67.0,65.8,30.26,NW,321,0.0,0.0,96,0.19,,,0.74,WeatherCatV1.15B25,2013-07-03 19:51:00,
2013-07-03 15:56:00,67.2,66.0,30.25,NNW,335,0.0,0.0,96,0.31,,,0.76,WeatherCatV1.15B25,2013-07-03 19:56:00,
2013-07-03 16:06:00,67.3,65.2,30.26,NE,47,4.0,9.0,93,0.05,,,0.76,WeatherCatV1.15B25,2013-07-03 20:06:00,
2013-07-03 16:16:00,66.4,64.3,30.26,North,11,0.0,4.0,93,0.00,,,0.76,WeatherCatV1.15B25,2013-07-03 20:16:00,
2013-07-03 16:21:00,66.1,64.0,30.26,WNW,294,0.0,6.0,93,0.00,,,0.76,WeatherCatV1.15B25,2013-07-03 20:21:00,
2013-07-03 16:26:00,65.7,63.6,30.25,NE,50,3.0,7.0,93,0.00,,,0.76,WeatherCatV1.15B25,2013-07-03 20:26:00,
2013-07-03 16:31:00,65.7,64.2,30.25,SE,145,0.0,3.0,95,0.00,,,0.76,WeatherCatV1.15B25,2013-07-03 20:31:00,
2013-07-03 16:36:00,65.4,63.3,30.26,North,9,2.0,4.0,93,0.00,,,0.77,WeatherCatV1.15B25,2013-07-03 20:36:00,
2013-07-03 16:41:00,65.0,63.5,30.27,SE,146,0.0,1.0,95,0.00,,,0.77,WeatherCatV1.15B25,2013-07-03 20:41:00,
2013-07-03 16:51:00,64.7,63.2,30.27,SE,134,0.0,1.0,95,0.19,,,0.82,WeatherCatV1.15B25,2013-07-03 20:51:00,
2013-07-03 17:16:00,63.7,62.5,30.29,SSE,154,0.0,2.0,96,0.31,,,1.22,WeatherCatV1.15B25,2013-07-03 21:16:00,
2013-07-03 17:21:00,63.6,62.7,30.30,South,180,0.0,1.0,97,0.58,,,1.26,WeatherCatV1.15B25,2013-07-03 21:21:00,
2013-07-03 17:26:00,63.6,62.7,30.29,East,93,0.0,1.0,97,2.25,,,1.38,WeatherCatV1.15B25,2013-07-03 21:26:00,
2013-07-03 17:31:00,63.3,62.4,30.29,SSW,211,0.0,2.0,97,0.52,,,1.47,WeatherCatV1.15B25,2013-07-03 21:31:00,
2013-07-03 17:36:00,63.2,62.3,30.30,SW,223,0.0,3.0,97,0.29,,,1.50,WeatherCatV1.15B25,2013-07-03 21:36:00,
2013-07-03 17:41:00,63.2,62.3,30.30,SW,223,0.0,1.0,97,0.26,,,1.52,WeatherCatV1.15B25,2013-07-03 21:41:00,
2013-07-03 17:46:00,63.0,61.8,30.30,East,89,1.0,5.0,96,0.34,,,1.54,WeatherCatV1.15B25,2013-07-03 21:46:00,
2013-07-03 17:51:00,62.7,61.5,30.30,East,89,1.0,1.0,96,0.36,,,1.56,WeatherCatV1.15B25,2013-07-03 21:51:00,
2013-07-03 17:56:00,62.6,61.7,30.31,WSW,248,1.0,3.0,97,0.51,,,1.60,WeatherCatV1.15B25,2013-07-03 21:56:00,
2013-07-03 18:01:00,62.6,61.7,30.31,WSW,247,0.0,1.0,97,0.33,,,1.63,WeatherCatV1.15B25,2013-07-03 22:01:00,
2013-07-03 18:06:00,62.4,61.2,30.31,SE,124,0.0,2.0,96,0.24,,,1.65,WeatherCatV1.15B25,2013-07-03 22:06:00,
2013-07-03 18:11:00,62.3,61.4,30.32,SE,124,0.0,0.0,97,0.26,,,1.67,WeatherCatV1.15B25,2013-07-03 22:11:00,
2013-07-03 18:16:00,62.2,61.3,30.32,ENE,77,0.0,1.0,97,0.48,,,1.70,WeatherCatV1.15B25,2013-07-03 22:16:00,
2013-07-03 18:21:00,62.1,61.2,30.32,East,92,2.0,2.0,97,0.38,,,1.74,WeatherCatV1.15B25,2013-07-03 22:21:00,
2013-07-03 18:31:00,62.0,61.1,30.32,East,89,0.0,0.0,97,0.24,,,1.78,WeatherCatV1.15B25,2013-07-03 22:31:00,
2013-07-03 18:36:00,62.0,61.1,30.32,East,89,0.0,2.0,97,0.17,,,1.79,WeatherCatV1.15B25,2013-07-03 22:36:00,
2013-07-03 18:41:00,62.1,61.2,30.32,ESE,114,0.0,1.0,97,0.16,,,1.80,WeatherCatV1.15B25,2013-07-03 22:41:00,
2013-07-03 18:46:00,62.1,61.2,30.33,ESE,114,0.0,0.0,97,0.18,,,1.82,WeatherCatV1.15B25,2013-07-03 22:46:00,
2013-07-03 18:51:00,62.2,61.6,30.33,ESE,114,0.0,0.0,98,0.25,,,1.84,WeatherCatV1.15B25,2013-07-03 22:51:00,
2013-07-03 18:56:00,62.2,61.6,30.32,ESE,114,0.0,0.0,98,0.18,,,1.85,WeatherCatV1.15B25,2013-07-03 22:56:00,
2013-07-03 19:01:00,62.3,61.7,30.32,ESE,113,0.0,0.0,98,0.14,,,1.86,WeatherCatV1.15B25,2013-07-03 23:01:00,
2013-07-03 19:06:00,62.2,61.3,30.31,NNE,18,0.0,2.0,97,0.14,,,1.88,WeatherCatV1.15B25,2013-07-03 23:06:00,
2013-07-03 19:11:00,62.1,61.2,30.32,ESE,109,0.0,2.0,97,0.19,,,1.89,WeatherCatV1.15B25,2013-07-03 23:11:00,
2013-07-03 19:16:00,62.1,61.2,30.32,NNW,348,0.0,1.0,97,0.28,,,1.91,WeatherCatV1.15B25,2013-07-03 23:16:00,
2013-07-03 19:21:00,62.0,61.1,30.32,ENE,61,0.0,2.0,97,0.23,,,1.93,WeatherCatV1.15B25,2013-07-03 23:21:00,
2013-07-03 19:26:00,62.0,61.1,30.32,NE,55,0.0,1.0,97,0.13,,,1.94,WeatherCatV1.15B25,2013-07-03 23:26:00,
2013-07-03 19:31:00,62.0,61.1,30.31,North,0,3.0,6.0,97,0.12,,,1.95,WeatherCatV1.15B25,2013-07-03 23:31:00,
2013-07-03 19:36:00,61.9,61.0,30.31,NNE,28,1.0,2.0,97,0.13,,,1.96,WeatherCatV1.15B25,2013-07-03 23:36:00,
2013-07-03 19:46:00,61.9,61.0,30.31,NW,325,0.0,1.0,97,0.10,,,1.98,WeatherCatV1.15B25,2013-07-03 23:46:00,
2013-07-03 19:51:00,61.9,61.0,30.31,NW,325,0.0,0.0,97,0.09,,,1.98,WeatherCatV1.15B25,2013-07-03 23:51:00,
2013-07-03 19:56:00,61.9,61.0,30.31,NW,325,0.0,0.0,97,0.05,,,1.98,WeatherCatV1.15B25,2013-07-03 23:56:00,
2013-07-03 20:01:00,61.9,61.0,30.31,ENE,65,0.0,2.0,97,0.05,,,1.99,WeatherCatV1.15B25,2013-07-04 00:01:00,
2013-07-03 20:11:00,61.8,60.9,30.30,East,94,0.0,0.0,97,0.05,,,2.00,WeatherCatV1.15B25,2013-07-04 00:11:00,
2013-07-03 20:16:00,61.8,60.9,30.30,ENE,77,1.0,1.0,97,0.05,,,2.00,WeatherCatV1.15B25,2013-07-04 00:16:00,
2013-07-03 20:21:00,61.8,60.9,30.30,North,9,0.0,0.0,97,0.05,,,2.00,WeatherCatV1.15B25,2013-07-04 00:21:00,
2013-07-03 20:31:00,61.7,60.8,30.30,North,5,0.0,0.0,97,0.04,,,2.01,WeatherCatV1.15B25,2013-07-04 00:31:00,
2013-07-03 20:36:00,61.7,60.8,30.30,North,5,0.0,0.0,97,0.04,,,2.01,WeatherCatV1.15B25,2013-07-04 00:36:00,
2013-07-03 20:41:00,61.7,61.1,30.30,NNE,12,0.0,0.0,98,0.00,,,2.01,WeatherCatV1.15B25,2013-07-04 00:41:00,
2013-07-03 20:51:00,61.7,60.8,30.30,NNE,12,0.0,0.0,97,0.00,,,2.01,WeatherCatV1.15B25,2013-07-04 00:51:00,
2013-07-03 20:56:00,61.7,61.1,30.30,NNE,12,0.0,0.0,98,0.00,,,2.01,WeatherCatV1.15B25,2013-07-04 00:56:00,
2013-07-03 21:01:00,61.7,61.1,30.30,NNE,12,0.0,0.0,98,0.00,,,2.02,WeatherCatV1.15B25,2013-07-04 01:01:00,
2013-07-03 21:06:00,61.7,61.1,30.29,NNE,12,0.0,0.0,98,0.00,,,2.02,WeatherCatV1.15B25,2013-07-04 01:06:00,
2013-07-03 21:11:00,61.7,61.1,30.29,NNE,12,0.0,0.0,98,0.00,,,2.02,WeatherCatV1.15B25,2013-07-04 01:11:00,
2013-07-03 21:21:00,61.6,61.0,30.29,NNE,12,0.0,0.0,98,0.00,,,2.02,WeatherCatV1.15B25,2013-07-04 01:21:00,
2013-07-03 21:26:00,61.6,61.0,30.30,NNE,12,0.0,0.0,98,0.00,,,2.02,WeatherCatV1.15B25,2013-07-04 01:26:00,
2013-07-03 21:31:00,61.6,61.0,30.29,NNE,12,0.0,0.0,98,0.00,,,2.02,WeatherCatV1.15B25,2013-07-04 01:31:00,
2013-07-03 21:36:00,61.6,61.0,30.29,NNE,12,0.0,0.0,98,0.00,,,2.02,WeatherCatV1.15B25,2013-07-04 01:36:00,
2013-07-03 21:41:00,61.7,61.1,30.29,NNE,12,0.0,0.0,98,0.00,,,2.02,WeatherCatV1.15B25,2013-07-04 01:41:00,
2013-07-03 21:46:00,61.6,61.0,30.30,NNE,12,0.0,0.0,98,0.00,,,2.02,WeatherCatV1.15B25,2013-07-04 01:46:00,
2013-07-03 21:51:00,61.6,61.0,30.29,NNE,12,0.0,0.0,98,0.00,,,2.02,WeatherCatV1.15B25,2013-07-04 01:51:00,
2013-07-03 22:01:00,61.7,61.1,30.29,NNE,12,0.0,0.0,98,0.00,,,2.02,WeatherCatV1.15B25,2013-07-04 02:01:00,
2013-07-03 22:06:00,61.7,61.1,30.30,NNE,12,0.0,0.0,98,0.00,,,2.02,WeatherCatV1.15B25,2013-07-04 02:06:00,
2013-07-03 22:11:00,61.8,61.2,30.30,NNE,12,0.0,0.0,98,0.00,,,2.02,WeatherCatV1.15B25,2013-07-04 02:11:00,
2013-07-03 22:16:00,61.8,61.2,30.29,NNE,12,0.0,0.0,98,0.00,,,2.02,WeatherCatV1.15B25,2013-07-04 02:16:00,
2013-07-03 22:26:00,61.7,61.1,30.29,NNW,328,0.0,0.0,98,0.00,,,2.02,WeatherCatV1.15B25,2013-07-04 02:26:00,
2013-07-03 22:31:00,61.7,61.1,30.30,NNW,328,0.0,0.0,98,0.00,,,2.02,WeatherCatV1.15B25,2013-07-04 02:31:00,
2013-07-03 22:41:00,61.7,61.1,30.31,NNW,328,0.0,0.0,98,0.00,,,2.02,WeatherCatV1.15B25,2013-07-04 02:41:00,
2013-07-03 22:46:00,61.7,61.1,30.31,NNW,328,0.0,0.0,98,0.00,,,2.02,WeatherCatV1.15B25,2013-07-04 02:46:00,
2013-07-03 22:51:00,61.8,61.2,30.30,NNW,328,0.0,0.0,98,0.00,,,2.02,WeatherCatV1.15B25,2013-07-04 02:51:00,
2013-07-03 22:56:00,61.8,61.2,30.30,NNW,328,0.0,0.0,98,0.00,,,2.02,WeatherCatV1.15B25,2013-07-04 02:56:00,
2013-07-03 23:06:00,61.8,61.2,30.30,NNW,328,0.0,0.0,98,0.00,,,2.02,WeatherCatV1.15B25,2013-07-04 03:06:00,
2013-07-03 23:11:00,61.8,61.2,30.31,NNW,328,0.0,0.0,98,0.00,,,2.02,WeatherCatV1.15B25,2013-07-04 03:11:00,
2013-07-03 23:21:00,61.8,61.2,30.31,NNW,328,0.0,0.0,98,0.00,,,2.02,WeatherCatV1.15B25,2013-07-04 03:21:00,
2013-07-03 23:36:00,61.8,61.2,30.30,NNW,328,0.0,0.0,98,0.00,,,2.02,WeatherCatV1.15B25,2013-07-04 03:36:00,
2013-07-03 23:41:00,61.8,61.2,30.31,NNW,328,0.0,0.0,98,0.00,,,2.02,WeatherCatV1.15B25,2013-07-04 03:41:00,
2013-07-03 23:51:00,61.8,61.2,30.31,NNW,328,0.0,0.0,98,0.00,,,2.02,WeatherCatV1.15B25,2013-07-04 03:51:00,
2013-07-03 23:56:00,61.8,61.2,30.31,NNW,328,0.0,0.0,98,0.00,,,2.02,WeatherCatV1.15B25,2013-07-04 03:56:00,